KNMI Weerbulletins

Hier vind u de KMNI verwachtingen en de waarnemingen

Bron: KNMI website
Laatste update op 23-04-2018 om 23:30
ZCZC
FBNL50 EHDB 232024
WEERBULLETIN VOOR DE LUCHTVAART
.
GELDIG VOOR: DE DAGLICHTPERIODE VAN DINSDAG 24 APRIL 2018.
.
SITUATIE: HET AZORENHOOG HEEFT EEN UITLOPER RICHTING OOSTENRIJK. AAN
DE NOORDFLANK VOERT EEN ZUIDWESTELIJKE STROMING VOCHTIGE LUCHT AAN
DIE ONSTABIEL IS TOT 1000 VT, IN DE MIDDAG TOT 4000 VT. DE POSITIE
VAN EEN O-W GEORIENTEERDE ZWAKKE FRONTALE ZONE LIGT BOVEN HET NOORDEN
EN BLIJFT VRIJWEL STATIONAIR LIGGEN. IN DE TWEEDE HELFT VAN DE MIDDAG
ACTIVEERT DE FRONTALE ZONE.
.
SIGNIFICANT WEER: BIJ DE FRONTALE ZONE MOGELIJK LOKAAL LICHTE
(MOT)REGEN. IN DE MIDDAG BIJ DE ACTIVERENDE FRONTALE ZONE GELEIDELIJK
OOK LICHTE TOT MATIGE REGEN, TEVENS MATIGE IJSAANZETTING BOVEN FL055.
ELDERS LOKAAL MATIGE IJSAANZETTING IN AC/AS BOVEN FL085.
.
WIND: ZUIDWEST 12-17 KN, LANGS DE KUST 17-21 KN. IN DE EERSTE HELFT
VAN DE MIDDAG TIJDELIJK WESTELIJK EN AFNEMEND NAAR 9-14 KN, LANGS DE
KUST 13-17 KN. AAN HET EINDE VAN DE PERIODE LANDINWAARTS VERDER
AFNEMEND NAAR 5-8 KN, IN DE KUSTPROVINCIES 8-12 KN, LANGS DE KUST EN
IN ZEELAND 12-15 KN, LANGS DE ZUIDWESTKUST 15-20 KN. UITSCHIETERS TOT
10 KN BOVEN DE GEMIDDELDE WIND ZIJN MOGELIJK.
.
BEWOLKING: BKN/OVC SC, IN DE MIDDAG OOK SCT CU, 1500-3000 VT, MET
NAME IN DE OCHTEND LOKAAL BKN SC 1000-1500 VT, TOPPEN 4000 VT. TEVENS
OVC AC/AS 7000 VT, TOPPEN BOVEN FL100. IN DE MIDDAG BIJ DE FRONTALE
ZONE OVC SC 1500-3000 VT, LOKAAL BKN SC 1000-1500 VT, MET NAME LANGS
DE WESTKUST MOGELIJK BKN ST 500-1000 VT, TOPPEN BOVEN FL100.
.
ZICHT: MEER DAN 10 KM, IN LICHTE REGEN MOGELIJK 5-8 KM, IN MATIGE
REGEN EN MOTREGEN 3-5 KM.
.
NULGRADEN NIVEAU: ROND FL085, IN DE MIDDAG BIJ DE FRONTALE ZONE
FL055-FL065.
.
THERMIEK: IN OPKLARINGEN VANAF 07 UTC ZWAK TOT MATIG MAAR BIJNA
OVERAL VERZWAKT DOOR AFSCHERMING VAN BEWOLKING EN LOKAAL VERWAAID.
EINDE THERMIEK 17:15 UTC.
.
DAGLICHTPERIODE: 04.10 TOT 19.08 UTC.=
NNNN
Bron: KNMI website
Laatste update op 23-04-2018 om 23:30
ZCZC
FC231700 EHGR     GILZE-RIJEN/GILZE-RIJEN   NLD   14 m.
TAF EHGR 231645Z 2317/2405 25006KT 9999 SCT035
    TEMPO 2321/2405 22012G22KT
    PROB30 TEMPO 2403/2405 SCT012 BKN018=
ZCZC
FC231700 EHLW     LEEUWARDEN/LEEUWARDEN   NLD   1 m.
TAF EHLW 231700Z NIL=
ZCZC
FC231700 EHVK     VOLKEL/VOLKEL   NLD   21 m.
TAF EHVK 231700Z NIL=
ZCZC
FC231700 EHWO     WOENSDRECHT/WOENSDRECHT   NLD   19 m.
TAF EHWO 231700Z NIL=
ZCZC
FT231700 EHAM     AMSTERDAM/SCHIPHOL   NLD   -3 m.
TAF EHAM 231658Z 2318/2424 23012KT 9999 FEW030
    BECMG 2404/2407 25015G25KT BKN020
    PROB30 TEMPO 2404/2409 -RA SCT008 BKN012
    BECMG 2415/2418 23012KT
    PROB40 TEMPO 2415/2418 6000 -RADZ SCT008 BKN012
    BECMG 2418/2421 24015G25KT 6000 -RADZ SCT008 BKN012
    PROB40 TEMPO 2418/2424 3500 -RADZ SCT005 BKN008=
ZCZC
FT231700 EHBK     MAASTRICHT/MAASTRICHT-AACHEN   NLD   114 m.
TAF EHBK 231655Z 2318/2424 29007KT CAVOK
    BECMG 2322/2401 23011KT
    BECMG 2406/2409 23012G22KT
    BECMG 2416/2419 23009KT=
ZCZC
FT231700 EHGG     GRONINGEN/EELDE   NLD   5 m.
TAF EHGG 231655Z 2318/2424 26011KT 9999 SCT035
    BECMG 2318/2321 19007KT
    BECMG 2323/2402 22013G23KT
    PROB30 TEMPO 2404/2407 6000 -DZRA BKN012
    BECMG 2406/2409 25015G25KT
    PROB40 TEMPO 2414/2422 6000 RA SCT008 BKN012
    BECMG 2415/2418 23009KT
    BECMG 2422/2424 21015G25KT 6000 -RA SCT008 BKN012
    TEMPO 2422/2424 4000 RA BKN008=
ZCZC
FT231700 EHRD     ROTTERDAM/THE HAGUE AIRPORT   NLD   -5 m.
TAF EHRD 231705Z 2318/2424 23012KT 9999 FEW030
    BECMG 2404/2407 25015G25KT BKN020
    PROB30 TEMPO 2404/2409 -RA SCT008 BKN012
    BECMG 2415/2418 23012KT
    PROB40 TEMPO 2415/2418 6000 -RADZ SCT008 BKN012
    BECMG 2418/2421 24015G25KT 6000 -RADZ SCT008 BKN012
    PROB30 TEMPO 2418/2424 3500 -RADZ SCT005 BKN008=
ZCZC
FT231700 EHEH RRA EINDHOVEN/EINDHOVEN   NLD   22 m.
TAF EHEH 231757Z 2318/2424 27005KT 9999 FEW035
    TEMPO 2321/2415 22012G22KT
    TEMPO 2404/2412 SCT015 BKN018
    PROB30 TEMPO 2404/2408 SCT012 BKN015
    PROB30 TEMPO 2416/2419 FEW012 SCT015 BKN020=
ZCZC
FC231800 EHKD     DE KOOY/DE KOOY   NLD   1 m.
TAF EHKD 231646Z 2317/2405 25015KT 9999 FEW035
    BECMG 2321/2323 22015G25KT
    PROB40 TEMPO 2401/2405 SCT010 BKN015=
Bron: KNMI website
Laatste update op 23-04-2018 om 23:30
ZCZC
SA232055 EHKD     DE KOOY/DE KOOY   NLD   1 m.
METAR EHKD 232055Z AUTO 22015KT 190V250 9999 BKN042 OVC260 09/08
Q1014
BLU 22013KT 9999 FEW041 BECMG 22015G25KT=
ZCZC
SA232055 EHFD     F3-FB-1   NLD   50 m.
METAR EHFD 232055Z AUTO 20021KT 9999 FEW041/// SCT049/// 08/06 Q1010
W///H///=
ZCZC
SA232055 EHAM     AMSTERDAM/SCHIPHOL   NLD   -3 m.
METAR EHAM 232055Z 23016KT CAVOK 11/06 Q1015 NOSIG=
ZCZC
SA232055 EHVL     VLIELAND   NLD   10 m.
METAR EHVL 232055Z AUTO 22020KT 9999 OVC040 10/08 Q1013 BLU=
ZCZC
SA232055 EHJR     K13-A   NLD   37 m.
METAR EHJR 232055Z AUTO 22023KT //// // ///////// 09/07 Q1012 RE//
W07/H9=
ZCZC
SA232055 EHLW     LEEUWARDEN/LEEUWARDEN   NLD   1 m.
METAR EHLW 232055Z AUTO 20005KT 170V230 9999 OVC041 09/07 Q1014 BLU=
ZCZC
SA232055 EHDL     ARNHEM/DEELEN   NLD   48 m.
METAR EHDL 232055Z AUTO 21004KT 160V230 9999 OVC230 09/05 Q1016 BLU=
ZCZC
SA232055 EHGG     GRONINGEN/EELDE   NLD   5 m.
METAR EHGG 232055Z AUTO 24006KT 9999 NSC 08/06 Q1014 NOSIG=
ZCZC
SA232055 EHSC     LICHTEILAND GOEREE   NLD   22 m.
METAR EHSC 232055Z AUTO 23026KT 9999 ///////// 10/07 Q1015 W09/H14=
ZCZC
SA232055 EHSA     EURO PLATFORM   NLD   19 m.
METAR EHSA 232055Z AUTO 21025KT 9999 ///////// 10/08 Q1015 W08/H14=
ZCZC
SA232055 EHWO     WOENSDRECHT/WOENSDRECHT   NLD   19 m.
METAR EHWO 232055Z AUTO 24012KT 9999 FEW023 OVC290 11/06 Q1017 BLU=
ZCZC
SA232055 EHRD     ROTTERDAM/THE HAGUE AIRPORT   NLD   -5 m.
METAR EHRD 232055Z AUTO 24012KT 200V270 9999 NCD 10/07 Q1016 NOSIG=
ZCZC
SA232055 EHGR     GILZE-RIJEN/GILZE-RIJEN   NLD   14 m.
METAR EHGR 232055Z AUTO 23006KT 200V280 9999 OVC300 11/06 Q1016
BLU 24004KT CAVOK=
ZCZC
SA232055 EHVK     VOLKEL/VOLKEL   NLD   21 m.
METAR EHVK 232055Z AUTO 25004KT 9999 OVC270 10/07 Q1016 BLU=
ZCZC
SA232055 EHBK     MAASTRICHT/MAASTRICHT-AACHEN   NLD   114 m.
METAR EHBK 232055Z AUTO 25008KT 210V290 9999 NSC 12/06 Q1017 NOSIG=
ZCZC
SA232055 EHFZ     F16-A   NLD   43 m.
METAR EHFZ 232055Z AUTO 20028KT 9999 FEW045 09/07 Q1011 W///H///=
ZCZC
SA232055 EHKV     K14-FA-1C   NLD   41 m.
METAR EHKV 232055Z AUTO 21025KT 9999 NSC 10/08 Q1012 W///H///=
ZCZC
SA232055 EHMG     L9-FF-1   NLD   44 m.
METAR EHMG 232055Z AUTO 22023KT 9999 BKN041 09/08 Q1012 W///H///=
ZCZC
SA232055 EHMA     AWG-1   NLD   40 m.
METAR EHMA 232055Z AUTO 21014KT 9999 FEW019 12/08 Q1013 W///H///=
ZCZC
SA232055 EHDV     D15-FA-1   NLD   42 m.
METAR EHDV 232055Z AUTO 22024KT 180V270 9999 SCT039/// 09/06 Q1010
W///H///=
ZCZC
SA232055 EHAK     A12-CPP   NLD   48 m.
METAR EHAK 232055Z AUTO 21024KT 9999 -RA FEW039/// BKN044///
OVC049/// 09/05 Q1008 W///H///=
ZCZC
SA232055 EHQE     HOORN-A   NLD   50 m.
METAR EHQE 232055Z AUTO 18027KT 9999 NCD 09/08 Q1013 W///H///=
ZCZC
SA232055 EHJA     J6-A   NLD   45 m.
METAR EHJA 232055Z AUTO 20022KT 9999 -SHRA FEW029/// 08/06 Q1011
W///H///=
ZCZC
SA232055 EHPG     P11-B   NLD   41 m.
METAR EHPG 232055Z AUTO 21026KT 9999 NSC 10/08 Q1014 W///H///=
ZCZC
SA232055 EHHW     BUITENGAATS/BG-OHVS2      42 m.
METAR EHHW 232055Z AUTO 23015KT 9999 OVC041/// 09/07 Q1013 W///H///=
ZCZC
SA232055 EHFS     VLISSINGEN AWS   NLD   8 m.
METAR EHFS 232055Z AUTO 22019KT 9999 NSC 10/07 Q1017 W///H///=
ZCZC
SA232055 EHEH CCA EINDHOVEN/EINDHOVEN   NLD   22 m.
METAR COR EHEH 232055Z AUTO 22006KT 9999 SCT300 09/07 Q1017 BLU=